Time;durP1;ratioP1;P1;durP2;ratioP2;P2;SDS_P1;SDS_P2;PMS_P1;PMS_P2;Temp;Humidity;BMP_temperature;BMP_pressure;BME280_temperature;BME280_humidity;BME280_pressure;Samples;Min_cycle;Max_cycle;Signal;HPM_P1;HPM_P2
2023/05/11 00:02:07;;;;;;;4.15;0.73;;;15.60;95.70;;;;;;6099346;23;20013;-78
2023/05/11 00:04:33;;;;;;;0.60;0.60;;;15.50;95.60;;;;;;6125849;23;20053;-78
2023/05/11 00:06:58;;;;;;;1.25;0.80;;;15.50;95.60;;;;;;6125256;23;20443;-78
2023/05/11 00:09:24;;;;;;;0.50;0.50;;;15.50;95.70;;;;;;6125854;23;20033;-78
2023/05/11 00:11:51;;;;;;;1.00;0.70;;;15.50;95.70;;;;;;6126177;23;20057;-78
2023/05/11 00:14:17;;;;;;;2.67;0.80;;;15.50;95.60;;;;;;6125936;23;20738;-77
2023/05/11 00:16:43;;;;;;;0.82;0.45;;;15.50;95.70;;;;;;6126034;23;20006;-79
2023/05/11 00:19:08;;;;;;;1.65;0.82;;;15.50;95.70;;;;;;6125534;23;20006;-78
2023/05/11 00:21:34;;;;;;;0.73;0.63;;;15.50;95.60;;;;;;6126187;23;20005;-78
2023/05/11 00:24:00;;;;;;;0.88;0.82;;;15.50;95.70;;;;;;6125584;23;20009;-78
2023/05/11 00:26:25;;;;;;;1.20;1.00;;;15.50;95.90;;;;;;6125372;23;20015;-78
2023/05/11 00:28:51;;;;;;;1.30;1.20;;;15.50;95.70;;;;;;6125451;23;20002;-78
2023/05/11 00:31:17;;;;;;;0.93;0.80;;;15.50;95.70;;;;;;6125935;23;20049;-75
2023/05/11 00:33:42;;;;;;;1.45;0.90;;;15.40;95.70;;;;;;6099213;23;20014;-78
2023/05/11 00:36:08;;;;;;;2.55;1.02;;;15.50;95.80;;;;;;6124706;23;20329;-79
2023/05/11 00:38:35;;;;;;;0.93;0.88;;;15.40;95.70;;;;;;6124670;23;20017;-79
2023/05/11 00:41:02;;;;;;;2.70;0.80;;;15.40;95.70;;;;;;6125837;23;20468;-78
2023/05/11 00:43:27;;;;;;;0.82;0.63;;;15.50;95.80;;;;;;6125304;23;20002;-78
2023/05/11 00:45:53;;;;;;;0.98;0.77;;;15.40;95.80;;;;;;6125609;23;20006;-78
2023/05/11 00:48:19;;;;;;;1.40;1.00;;;15.50;95.80;;;;;;6124741;23;20397;-78
2023/05/11 00:50:45;;;;;;;0.80;0.80;;;15.50;95.80;;;;;;6126284;23;20010;-78
2023/05/11 00:53:11;;;;;;;1.30;1.08;;;15.50;95.80;;;;;;6128077;23;20002;-78
2023/05/11 00:55:37;;;;;;;1.15;0.68;;;15.50;95.80;;;;;;6127504;23;20048;-78
2023/05/11 00:58:04;;;;;;;0.75;0.75;;;15.50;95.90;;;;;;6126745;23;20013;-78
2023/05/11 01:00:30;;;;;;;0.88;0.88;;;15.50;95.80;;;;;;6127381;23;20012;-78
2023/05/11 01:02:57;;;;;;;1.17;0.77;;;15.50;95.80;;;;;;6126962;23;20084;-78
2023/05/11 01:05:29;;;;;;;2.25;1.08;;;15.40;95.80;;;;;;6127315;23;20004;-78
2023/05/11 01:08:05;;;;;;;1.60;0.73;;;15.40;95.80;;;;;;6127368;23;20009;-78
2023/05/11 01:10:32;;;;;;;1.27;0.77;;;15.40;95.80;;;;;;6127859;23;21045;-78
2023/05/11 01:13:17;;;;;;;1.27;0.82;;;15.40;95.80;;;;;;6127269;23;19998;-78
2023/05/11 01:15:50;;;;;;;1.02;0.93;;;15.40;95.90;;;;;;6101171;23;20318;-78
2023/05/11 01:18:40;;;;;;;0.80;0.70;;;15.40;95.80;;;;;;6127179;23;20029;-78
2023/05/11 01:21:07;;;;;;;;;;;15.40;95.90;;;;;;6127759;23;20005;-78
2023/05/11 01:23:48;;;;;;;1.00;0.50;;;15.40;96.00;;;;;;6127127;23;19996;-79
2023/05/11 01:26:38;;;;;;;1.60;0.88;;;15.40;96.00;;;;;;6126873;23;20034;-78
2023/05/11 01:29:22;;;;;;;0.40;0.40;;;15.40;96.00;;;;;;6126640;23;20030;-78
2023/05/11 01:31:49;;;;;;;0.60;0.60;;;15.40;96.00;;;;;;6127477;23;20045;-78
2023/05/11 01:34:22;;;;;;;0.93;0.70;;;15.40;96.10;;;;;;6127060;23;20006;-78
2023/05/11 01:37:17;;;;;;;1.95;0.88;;;15.40;96.00;;;;;;6126344;23;20006;-78
2023/05/11 01:39:56;;;;;;;1.55;0.63;;;15.40;96.00;;;;;;6101248;23;20009;-78
2023/05/11 01:42:30;;;;;;;0.80;0.50;;;15.40;96.00;;;;;;6126939;23;20033;-78
2023/05/11 01:44:58;;;;;;;1.15;0.63;;;15.40;96.00;;;;;;6102262;23;20013;-78
2023/05/11 01:47:26;;;;;;;1.00;0.70;;;15.40;95.90;;;;;;6126812;23;20009;-78
2023/05/11 01:49:54;;;;;;;0.70;0.70;;;15.40;95.90;;;;;;6126825;23;20317;-78
2023/05/11 01:52:23;;;;;;;0.60;0.60;;;15.40;95.80;;;;;;6126810;23;20036;-78
2023/05/11 01:54:51;;;;;;;0.38;0.38;;;15.40;95.90;;;;;;6126922;23;20013;-79
2023/05/11 01:57:18;;;;;;;0.50;0.45;;;15.40;95.90;;;;;;6125492;23;20010;-79
2023/05/11 01:59:45;;;;;;;0.47;0.40;;;15.40;96.00;;;;;;6126297;23;20009;-79
2023/05/11 02:02:12;;;;;;;0.38;0.28;;;15.40;95.90;;;;;;6126590;23;20321;-79
2023/05/11 02:04:40;;;;;;;1.38;0.40;;;15.40;95.90;;;;;;6127213;23;20002;-79
2023/05/11 02:07:09;;;;;;;1.13;0.60;;;15.40;96.00;;;;;;6126792;23;20425;-79
2023/05/11 02:09:36;;;;;;;0.40;0.40;;;15.40;96.00;;;;;;6127095;23;20308;-79
2023/05/11 02:12:04;;;;;;;1.55;0.70;;;15.40;96.00;;;;;;6126498;23;20013;-79
2023/05/11 02:14:32;;;;;;;0.75;0.50;;;15.40;95.90;;;;;;6127039;23;20085;-78
2023/05/11 02:17:00;;;;;;;0.32;0.32;;;15.30;96.00;;;;;;6099731;23;20033;-78
2023/05/11 02:19:28;;;;;;;1.23;0.30;;;15.40;96.00;;;;;;6126813;23;20002;-78
2023/05/11 02:21:55;;;;;;;0.30;0.30;;;15.40;96.30;;;;;;6126628;23;20014;-78
2023/05/11 02:24:23;;;;;;;0.55;0.32;;;15.40;96.10;;;;;;6126701;23;20081;-78
2023/05/11 02:26:49;;;;;;;1.15;0.40;;;15.40;96.20;;;;;;6125947;23;20002;-78
2023/05/11 02:29:15;;;;;;;0.38;0.38;;;15.40;96.10;;;;;;6126791;23;20006;-77
2023/05/11 02:31:44;;;;;;;0.55;0.40;;;15.30;96.10;;;;;;6126577;23;20005;-78
2023/05/11 02:34:19;;;;;;;1.92;0.60;;;15.40;96.00;;;;;;6126402;23;20029;-78
2023/05/11 02:36:48;;;;;;;0.30;0.30;;;15.40;96.00;;;;;;6126150;23;20013;-79
2023/05/11 02:39:20;;;;;;;0.47;0.45;;;15.40;95.90;;;;;;6126716;23;20419;-78
2023/05/11 02:41:52;;;;;;;0.28;0.28;;;15.40;95.90;;;;;;6101501;23;20006;-78
2023/05/11 02:44:20;;;;;;;0.43;0.22;;;15.50;95.90;;;;;;6126580;23;20032;-78
2023/05/11 02:46:47;;;;;;;0.30;0.30;;;15.50;95.80;;;;;;6126304;23;20002;-79
2023/05/11 02:49:14;;;;;;;0.68;0.38;;;15.40;95.80;;;;;;6126578;23;20002;-78
2023/05/11 02:51:43;;;;;;;0.45;0.40;;;15.40;95.80;;;;;;6126097;23;20005;-77
2023/05/11 02:54:11;;;;;;;1.35;0.30;;;15.40;95.80;;;;;;6126624;23;20037;-78
2023/05/11 02:56:37;;;;;;;0.70;0.50;;;15.40;95.80;;;;;;6126192;23;20325;-78
2023/05/11 02:59:03;;;;;;;0.60;0.40;;;15.40;95.70;;;;;;6101077;23;20006;-78
2023/05/11 03:01:29;;;;;;;0.47;0.32;;;15.40;95.70;;;;;;6126174;23;20429;-78
2023/05/11 03:03:55;;;;;;;0.30;0.30;;;15.40;95.90;;;;;;6126067;23;20077;-78
2023/05/11 03:06:21;;;;;;;1.60;0.20;;;15.40;95.90;;;;;;6125839;23;20002;-78
2023/05/11 03:08:47;;;;;;;0.20;0.20;;;15.40;96.10;;;;;;6126254;23;20072;-78
2023/05/11 03:11:15;;;;;;;1.75;0.40;;;15.40;95.80;;;;;;6125855;23;20029;-78
2023/05/11 03:13:44;;;;;;;0.20;0.20;;;15.30;95.90;;;;;;6125992;23;20009;-78
2023/05/11 03:16:12;;;;;;;0.20;0.20;;;15.30;96.00;;;;;;6125887;23;20329;-79
2023/05/11 03:18:38;;;;;;;0.73;0.40;;;15.30;96.10;;;;;;6126158;23;20006;-79
2023/05/11 03:21:05;;;;;;;0.20;0.20;;;15.30;95.90;;;;;;6125738;23;20088;-78
2023/05/11 03:23:33;;;;;;;0.25;0.25;;;15.20;96.00;;;;;;6125703;23;20005;-79
2023/05/11 03:26:01;;;;;;;0.40;0.28;;;15.20;96.10;;;;;;6125841;23;20421;-79
2023/05/11 03:28:28;;;;;;;0.82;0.40;;;15.20;96.10;;;;;;6126711;23;20002;-79
2023/05/11 03:30:54;;;;;;;0.50;0.30;;;15.20;96.10;;;;;;6126087;23;20437;-79
2023/05/11 03:33:20;;;;;;;0.40;0.20;;;15.20;96.10;;;;;;6126553;23;20002;-79
2023/05/11 03:35:48;;;;;;;1.05;0.50;;;15.20;96.10;;;;;;6125308;23;20013;-78
2023/05/11 03:38:14;;;;;;;0.20;0.20;;;15.20;96.20;;;;;;6126023;23;20042;-78
2023/05/11 03:40:41;;;;;;;0.77;0.30;;;15.20;96.30;;;;;;6125668;23;20009;-79
2023/05/11 03:43:15;;;;;;;0.40;0.28;;;15.20;96.40;;;;;;6125964;23;20006;-78
2023/05/11 03:45:42;;;;;;;1.23;0.28;;;15.20;96.30;;;;;;6125373;23;20002;-79
2023/05/11 03:48:09;;;;;;;0.28;0.20;;;15.10;96.30;;;;;;6126337;23;20025;-79
2023/05/11 03:50:37;;;;;;;0.30;0.30;;;15.10;96.40;;;;;;6125705;23;20002;-79
2023/05/11 03:53:04;;;;;;;0.32;0.30;;;15.10;96.40;;;;;;6126241;23;20002;-78
2023/05/11 03:55:30;;;;;;;0.50;0.40;;;15.10;96.50;;;;;;6125772;23;20028;-79
2023/05/11 03:57:56;;;;;;;0.55;0.30;;;15.10;96.50;;;;;;6126031;23;20002;-79
2023/05/11 04:00:22;;;;;;;0.20;0.20;;;15.10;96.50;;;;;;6125341;23;20352;-79
2023/05/11 04:02:48;;;;;;;0.40;0.40;;;15.10;96.60;;;;;;6100129;23;20464;-76
2023/05/11 04:05:14;;;;;;;0.40;0.30;;;15.10;96.70;;;;;;6125603;23;20376;-76
2023/05/11 04:07:40;;;;;;;1.23;0.45;;;15.10;96.70;;;;;;6125922;23;20021;-76
2023/05/11 04:10:06;;;;;;;0.38;0.30;;;15.10;96.70;;;;;;6125463;23;20006;-76
2023/05/11 04:12:32;;;;;;;3.00;0.55;;;15.10;96.60;;;;;;6126050;23;20352;-75
2023/05/11 04:14:58;;;;;;;0.20;0.20;;;15.10;96.60;;;;;;6125115;23;20038;-75
2023/05/11 04:17:23;;;;;;;0.20;0.20;;;15.10;96.70;;;;;;6099416;23;20064;-76
2023/05/11 04:19:49;;;;;;;0.47;0.38;;;15.00;96.70;;;;;;6125413;23;20009;-75
2023/05/11 04:22:15;;;;;;;0.20;0.20;;;15.00;96.70;;;;;;6099747;23;20455;-76
2023/05/11 04:24:41;;;;;;;0.50;0.25;;;15.10;96.70;;;;;;6125426;23;20118;-75
2023/05/11 04:27:07;;;;;;;0.35;0.30;;;15.10;96.60;;;;;;6127077;23;19998;-75
2023/05/11 04:29:33;;;;;;;0.55;0.38;;;15.20;96.60;;;;;;6127948;23;20002;-75
2023/05/11 04:31:58;;;;;;;0.57;0.30;;;15.20;96.60;;;;;;6101368;23;20029;-74
2023/05/11 04:34:24;;;;;;;0.30;0.20;;;15.20;96.50;;;;;;6127200;23;20013;-74
2023/05/11 04:36:50;;;;;;;0.52;0.17;;;15.30;96.50;;;;;;6127095;23;20022;-74
2023/05/11 04:39:16;;;;;;;0.20;0.20;;;15.30;96.50;;;;;;6128073;23;20006;-75
2023/05/11 04:41:43;;;;;;;0.20;0.20;;;15.30;96.50;;;;;;6125647;23;20482;-76
2023/05/11 04:44:09;;;;;;;0.25;0.25;;;15.30;96.50;;;;;;6127191;23;20014;-74
2023/05/11 04:46:37;;;;;;;0.65;0.30;;;15.30;96.50;;;;;;6127659;23;20085;-74
2023/05/11 04:49:03;;;;;;;0.50;0.20;;;15.30;96.50;;;;;;6127465;23;20036;-75
2023/05/11 04:51:29;;;;;;;0.68;0.40;;;15.30;96.50;;;;;;6125876;23;20006;-78
2023/05/11 04:53:55;;;;;;;0.38;0.30;;;15.30;96.50;;;;;;6128036;23;20010;-75
2023/05/11 04:56:20;;;;;;;0.13;0.13;;;15.40;96.50;;;;;;6127001;23;20097;-75
2023/05/11 04:58:46;;;;;;;0.40;0.30;;;15.40;96.50;;;;;;6127609;23;20010;-75
2023/05/11 05:01:12;;;;;;;0.43;0.20;;;15.40;96.40;;;;;;6126837;23;20012;-76
2023/05/11 05:03:38;;;;;;;0.10;0.10;;;15.40;96.40;;;;;;6126218;23;20006;-76
2023/05/11 05:06:03;;;;;;;0.38;0.28;;;15.40;96.30;;;;;;6126814;23;20041;-75
2023/05/11 05:08:29;;;;;;;0.47;0.40;;;15.40;96.30;;;;;;6124359;23;19998;-76
2023/05/11 05:10:55;;;;;;;0.85;0.28;;;15.40;96.30;;;;;;6125017;23;20409;-76
2023/05/11 05:13:20;;;;;;;0.45;0.20;;;15.40;96.30;;;;;;6124888;23;20006;-76
2023/05/11 05:15:46;;;;;;;0.32;0.20;;;15.40;96.30;;;;;;6126218;23;20006;-76
2023/05/11 05:18:12;;;;;;;0.52;0.32;;;15.40;96.40;;;;;;6126136;23;20060;-77
2023/05/11 05:20:38;;;;;;;0.25;0.10;;;15.40;96.30;;;;;;6124676;23;20018;-77
2023/05/11 05:23:04;;;;;;;0.28;0.28;;;15.40;96.30;;;;;;6125323;23;20006;-75
2023/05/11 05:25:30;;;;;;;0.20;0.20;;;15.50;96.40;;;;;;6124880;23;20002;-75
2023/05/11 05:27:56;;;;;;;0.20;0.20;;;15.40;96.30;;;;;;6124444;23;20006;-76
2023/05/11 05:30:21;;;;;;;0.93;0.30;;;15.50;96.20;;;;;;6126372;23;20335;-79
2023/05/11 05:32:47;;;;;;;0.20;0.20;;;15.50;96.10;;;;;;6126847;23;20073;-76
2023/05/11 05:35:13;;;;;;;0.17;0.15;;;15.50;96.10;;;;;;6124697;23;20433;-76
2023/05/11 05:37:39;;;;;;;0.40;0.30;;;15.50;96.10;;;;;;6123941;23;20073;-76
2023/05/11 05:40:05;;;;;;;0.40;0.38;;;15.50;96.10;;;;;;6125331;23;20002;-76
2023/05/11 05:42:31;;;;;;;0.77;0.20;;;15.50;96.10;;;;;;6125377;23;20010;-77
2023/05/11 05:44:57;;;;;;;0.38;0.22;;;15.50;96.00;;;;;;6125167;23;20041;-75
2023/05/11 05:47:22;;;;;;;0.52;0.30;;;15.50;96.00;;;;;;6124926;23;20040;-75
2023/05/11 05:49:48;;;;;;;1.05;0.30;;;15.50;96.00;;;;;;6125528;23;19998;-75
2023/05/11 05:52:14;;;;;;;0.30;0.20;;;15.50;96.10;;;;;;6125736;23;20076;-79
2023/05/11 05:54:39;;;;;;;0.77;0.30;;;15.50;96.10;;;;;;6126775;23;20077;-80
2023/05/11 05:57:05;;;;;;;0.20;0.20;;;15.40;96.20;;;;;;6126543;23;20009;-79
2023/05/11 05:59:31;;;;;;;0.45;0.20;;;15.40;96.20;;;;;;6126802;23;20006;-80
2023/05/11 06:01:57;;;;;;;0.38;0.20;;;15.30;96.20;;;;;;6100510;23;20010;-80
2023/05/11 06:04:23;;;;;;;1.17;0.30;;;15.30;96.40;;;;;;6101002;23;20032;-81
2023/05/11 11:15:22;;;;;;;0.80;0.60;;;14.20;99.90;;;;;;6287800;22;20351;-90
2023/05/11 11:18:22;;;;;;;0.47;0.47;;;14.90;99.90;;;;;;6285819;22;20012;-90
2023/05/11 11:20:51;;;;;;;1.23;0.50;;;15.00;99.90;;;;;;6285361;22;20068;-90
2023/05/11 11:23:45;;;;;;;0.75;0.50;;;15.10;99.90;;;;;;6285867;22;20034;-89
2023/05/11 11:26:16;;;;;;;0.82;0.57;;;15.20;99.90;;;;;;6271926;22;20074;-90
2023/05/11 11:28:55;;;;;;;0.60;0.40;;;15.20;99.90;;;;;;6256997;22;20455;-90
2023/05/11 11:31:26;;;;;;;0.68;0.65;;;15.30;99.90;;;;;;6307952;22;20056;-89
2023/05/11 11:33:54;;;;;;;0.60;0.40;;;15.40;99.90;;;;;;6283518;22;20000;-88
2023/05/11 11:36:59;;;;;;;1.23;0.52;;;15.40;99.90;;;;;;6280839;22;20078;-89
2023/05/11 11:39:26;;;;;;;0.68;0.65;;;15.50;99.90;;;;;;6306511;22;20460;-86
2023/05/11 11:42:01;;;;;;;1.02;0.40;;;15.50;99.90;;;;;;6256153;22;20090;-88
2023/05/11 11:44:27;;;;;;;0.60;0.50;;;15.60;99.90;;;;;;6281871;22;20007;-89
2023/05/11 11:47:14;;;;;;;1.00;0.55;;;15.60;99.90;;;;;;6282114;22;20022;-90
2023/05/11 11:49:42;;;;;;;1.40;0.38;;;15.60;99.90;;;;;;6280250;22;20448;-89
2023/05/11 11:52:26;;;;;;;0.40;0.40;;;15.60;99.40;;;;;;6281920;22;20441;-89
2023/05/11 11:54:53;;;;;;;1.40;0.30;;;15.60;99.20;;;;;;6306159;22;20007;-88
2023/05/11 11:57:33;;;;;;;0.50;0.50;;;15.70;99.00;;;;;;6281697;22;20344;-88
2023/05/11 12:00:06;;;;;;;0.50;0.40;;;15.60;98.90;;;;;;6282761;22;20003;-88
2023/05/11 12:02:32;;;;;;;0.40;0.40;;;15.70;98.70;;;;;;6281183;22;20512;-89
2023/05/11 12:05:16;;;;;;;0.70;0.30;;;15.70;98.70;;;;;;6282982;22;20000;-89
2023/05/11 12:07:45;;;;;;;0.70;0.30;;;15.60;98.70;;;;;;6308926;22;20004;-88
2023/05/11 12:10:21;;;;;;;0.60;0.45;;;15.70;98.80;;;;;;6308395;22;20065;-88
2023/05/11 12:12:49;;;;;;;0.40;0.40;;;15.70;98.40;;;;;;6282679;22;20004;-86
2023/05/11 12:15:30;;;;;;;0.45;0.30;;;15.70;98.10;;;;;;6251736;22;20399;-85
2023/05/11 12:17:55;;;;;;;0.40;0.40;;;15.80;98.20;;;;;;6249046;22;20064;-87
2023/05/11 12:20:22;;;;;;;0.32;0.32;;;15.70;97.70;;;;;;6275878;22;20078;-86
2023/05/11 12:22:48;;;;;;;0.60;0.30;;;15.70;97.70;;;;;;6275048;22;19999;-87
2023/05/11 12:25:18;;;;;;;0.77;0.50;;;15.70;97.90;;;;;;6277696;22;20006;-85
2023/05/11 12:27:59;;;;;;;0.38;0.20;;;15.70;97.70;;;;;;6248990;22;20000;-88
2023/05/11 12:30:32;;;;;;;0.75;0.20;;;15.70;97.70;;;;;;6249574;22;20004;-87
2023/05/11 12:33:00;;;;;;;0.25;0.25;;;15.60;97.70;;;;;;6297034;22;20086;-88
2023/05/11 12:35:30;;;;;;;0.20;0.20;;;15.60;97.90;;;;;;6275373;22;20057;-88
2023/05/11 12:37:58;;;;;;;0.20;0.20;;;15.60;97.80;;;;;;6250020;22;20004;-87
2023/05/11 12:40:24;;;;;;;0.98;0.47;;;15.60;97.80;;;;;;6276704;22;20057;-86
2023/05/11 12:42:58;;;;;;;0.70;0.28;;;15.60;97.70;;;;;;6251314;22;20087;-86
2023/05/11 12:45:25;;;;;;;2.17;0.40;;;15.60;97.70;;;;;;6302636;22;20310;-85
2023/05/11 12:47:53;;;;;;;0.43;0.40;;;15.60;97.80;;;;;;6251555;22;20010;-87
2023/05/11 12:50:20;;;;;;;1.00;0.30;;;15.60;97.60;;;;;;6277745;22;20028;-84
2023/05/11 12:52:47;;;;;;;0.55;0.30;;;15.60;97.70;;;;;;6277599;22;20000;-84
2023/05/11 12:55:15;;;;;;;1.25;0.30;;;15.60;97.90;;;;;;6277144;22;20049;-84
2023/05/11 12:57:41;;;;;;;0.57;0.25;;;15.60;97.90;;;;;;6277643;22;20027;-85
2023/05/11 13:00:15;;;;;;;0.65;0.30;;;15.60;98.10;;;;;;6250199;22;20003;-85
2023/05/11 13:02:55;;;;;;;0.85;0.40;;;15.60;97.80;;;;;;6250345;22;20034;-84
2023/05/11 13:05:24;;;;;;;;;;;15.60;97.90;;;;;;6278249;22;20121;-85
2023/05/11 13:08:02;;;;;;;1.40;0.40;;;15.50;97.90;;;;;;6301768;22;19899;-85
2023/05/11 13:10:28;;;;;;;0.30;0.30;;;15.60;97.80;;;;;;6250444;22;20087;-85
2023/05/11 13:12:55;;;;;;;0.45;0.40;;;15.50;97.80;;;;;;6277555;22;20000;-85
2023/05/11 13:15:23;;;;;;;0.32;0.30;;;15.60;98.00;;;;;;6250093;22;20346;-85
2023/05/11 13:18:00;;;;;;;0.35;0.30;;;15.60;97.90;;;;;;6277351;22;20003;-86
2023/05/11 13:20:31;;;;;;;0.80;0.40;;;15.60;97.70;;;;;;6301892;22;20010;-85
2023/05/11 13:23:15;;;;;;;0.20;0.20;;;15.60;97.60;;;;;;6277634;22;20425;-86
2023/05/11 13:25:54;;;;;;;0.30;0.25;;;15.60;97.40;;;;;;6277483;22;20007;-86
2023/05/11 13:28:22;;;;;;;0.30;0.30;;;15.70;97.50;;;;;;6275816;22;20114;-85
2023/05/11 13:30:52;;;;;;;0.40;0.40;;;15.70;97.50;;;;;;6276430;22;20121;-85
2023/05/11 13:33:18;;;;;;;0.30;0.30;;;15.70;97.50;;;;;;6300960;22;20007;-85
2023/05/11 13:35:44;;;;;;;0.38;0.30;;;15.70;97.50;;;;;;6276578;22;20079;-84
2023/05/11 13:38:11;;;;;;;1.20;0.35;;;15.70;97.60;;;;;;6276720;22;20000;-84
2023/05/11 13:40:37;;;;;;;0.30;0.20;;;15.70;97.40;;;;;;6275370;22;20010;-85
2023/05/11 13:43:02;;;;;;;0.70;0.38;;;15.80;97.50;;;;;;6275773;22;20014;-84
2023/05/11 13:45:28;;;;;;;1.75;0.30;;;15.90;97.50;;;;;;6301529;22;20008;-84
2023/05/11 13:47:54;;;;;;;1.08;0.73;;;15.90;97.60;;;;;;6275664;22;20027;-85
2023/05/11 13:50:24;;;;;;;0.30;0.28;;;15.90;97.30;;;;;;6277089;22;19996;-82
2023/05/11 13:52:50;;;;;;;;;;;15.90;97.10;;;;;;6277226;22;20004;-83
2023/05/11 13:55:16;;;;;;;0.50;0.40;;;15.90;97.00;;;;;;6274964;22;19978;-84
2023/05/11 13:57:42;;;;;;;0.68;0.38;;;15.90;97.10;;;;;;6276665;22;20045;-83
2023/05/11 14:00:08;;;;;;;0.70;0.50;;;16.00;97.10;;;;;;6276991;22;20440;-83
2023/05/11 14:02:34;;;;;;;0.85;0.38;;;16.00;97.10;;;;;;6276029;22;20010;-87
2023/05/11 14:05:00;;;;;;;1.00;0.50;;;16.00;97.30;;;;;;6278141;22;20075;-87
2023/05/11 14:07:25;;;;;;;0.30;0.30;;;16.10;97.20;;;;;;6278060;22;20050;-88
2023/05/11 14:09:51;;;;;;;0.93;0.50;;;16.10;96.90;;;;;;6277554;22;20022;-88
2023/05/11 14:12:17;;;;;;;1.20;0.65;;;16.10;96.80;;;;;;6247557;22;19996;-87
2023/05/11 14:14:43;;;;;;;0.95;0.70;;;16.10;96.80;;;;;;6276151;22;20383;-88
2023/05/11 14:17:14;;;;;;;0.60;0.50;;;16.00;96.80;;;;;;6249048;22;20341;-87
2023/05/11 14:19:40;;;;;;;1.45;0.63;;;16.10;96.70;;;;;;6250067;22;20393;-87
2023/05/11 14:22:06;;;;;;;0.82;0.60;;;16.00;96.70;;;;;;6276772;22;20027;-87
2023/05/11 14:24:32;;;;;;;2.20;1.02;;;16.00;96.50;;;;;;6277117;22;20334;-87
2023/05/11 14:27:01;;;;;;;2.95;1.08;;;16.00;96.60;;;;;;6250371;22;20007;-87
2023/05/11 14:29:27;;;;;;;4.28;0.73;;;16.00;96.70;;;;;;6277684;22;20448;-87
2023/05/11 14:31:52;;;;;;;0.73;0.73;;;16.00;96.60;;;;;;6250451;22;20027;-87
2023/05/11 14:34:18;;;;;;;1.02;0.77;;;16.00;96.80;;;;;;6277935;22;20007;-87
2023/05/11 14:36:44;;;;;;;2.38;0.80;;;16.00;96.80;;;;;;6277597;22;20026;-87
2023/05/11 14:39:09;;;;;;;0.60;0.60;;;16.00;96.90;;;;;;6277608;22;20061;-87
2023/05/11 14:41:35;;;;;;;1.50;0.90;;;16.00;96.90;;;;;;6277420;22;20011;-87
2023/05/11 14:44:01;;;;;;;1.35;0.65;;;16.00;96.80;;;;;;6277173;22;20004;-87
2023/05/11 14:46:27;;;;;;;2.00;0.60;;;16.00;96.90;;;;;;6277126;22;20010;-87
2023/05/11 14:48:52;;;;;;;0.90;0.60;;;16.00;96.70;;;;;;6277727;22;20372;-87
2023/05/11 14:51:18;;;;;;;0.80;0.60;;;16.00;96.80;;;;;;6277851;22;19999;-87
2023/05/11 14:53:44;;;;;;;3.33;0.70;;;16.00;96.80;;;;;;6301537;22;20010;-87
2023/05/11 14:56:09;;;;;;;0.60;0.60;;;16.00;96.70;;;;;;6277566;22;20004;-88
2023/05/11 14:58:35;;;;;;;0.60;0.60;;;16.00;96.60;;;;;;6277708;22;20031;-87
2023/05/11 15:01:02;;;;;;;0.82;0.73;;;16.00;96.60;;;;;;6277166;22;20007;-87
2023/05/11 15:03:28;;;;;;;1.05;0.70;;;16.00;96.60;;;;;;6277560;22;20430;-87
2023/05/11 15:05:54;;;;;;;0.90;0.52;;;15.90;96.60;;;;;;6276954;22;20023;-88
2023/05/11 15:08:19;;;;;;;1.20;0.77;;;15.90;96.80;;;;;;6277672;22;20003;-88
2023/05/11 15:10:45;;;;;;;0.43;0.40;;;15.90;96.70;;;;;;6275884;22;20326;-87
2023/05/11 15:13:13;;;;;;;0.60;0.50;;;15.90;96.60;;;;;;6300155;22;20430;-88
2023/05/11 15:15:39;;;;;;;0.65;0.65;;;15.90;96.80;;;;;;6249138;22;20045;-87
2023/05/11 15:18:05;;;;;;;0.88;0.63;;;15.90;96.70;;;;;;6276578;22;20333;-88
2023/05/11 15:20:30;;;;;;;0.82;0.77;;;16.00;96.80;;;;;;6276618;22;20000;-88
2023/05/11 15:22:56;;;;;;;0.88;0.77;;;16.00;96.60;;;;;;6275908;22;20000;-87
2023/05/11 15:25:21;;;;;;;0.70;0.68;;;15.90;96.60;;;;;;6276648;22;20000;-87
2023/05/11 15:27:47;;;;;;;1.30;0.88;;;15.90;96.50;;;;;;6275779;22;19996;-88
2023/05/11 15:30:13;;;;;;;0.98;0.60;;;15.90;96.50;;;;;;6299981;22;20011;-87
2023/05/11 15:32:39;;;;;;;1.40;0.60;;;16.00;96.60;;;;;;6276026;22;20008;-87
2023/05/11 15:35:05;;;;;;;0.95;0.70;;;15.90;96.40;;;;;;6275486;22;20329;-87
2023/05/11 15:37:31;;;;;;;0.93;0.60;;;15.90;96.40;;;;;;6275684;22;20430;-87
2023/05/11 15:39:57;;;;;;;1.70;0.57;;;15.90;96.40;;;;;;6275852;22;20034;-87
2023/05/11 15:42:23;;;;;;;1.60;0.77;;;15.90;96.40;;;;;;6276618;22;20055;-87
2023/05/11 15:44:48;;;;;;;0.60;0.43;;;15.90;96.30;;;;;;6277108;22;20000;-87
2023/05/11 15:47:14;;;;;;;0.30;0.30;;;15.90;96.20;;;;;;6276789;22;20075;-86
2023/05/11 15:49:40;;;;;;;0.40;0.40;;;15.90;96.40;;;;;;6276727;22;20000;-87
2023/05/11 15:52:06;;;;;;;0.40;0.40;;;15.90;96.00;;;;;;6278430;22;19999;-88
2023/05/11 15:54:32;;;;;;;0.50;0.50;;;15.90;96.00;;;;;;6251312;22;20008;-87
2023/05/11 15:56:58;;;;;;;0.52;0.40;;;15.90;95.80;;;;;;6276685;22;20105;-88
2023/05/11 15:59:24;;;;;;;0.82;0.40;;;15.90;96.00;;;;;;6302625;22;20003;-92
2023/05/11 16:01:50;;;;;;;2.10;0.60;;;15.90;95.90;;;;;;6250360;22;20011;-92
2023/05/11 16:04:15;;;;;;;0.50;0.50;;;15.90;96.00;;;;;;6277992;22;20023;-92
2023/05/11 16:06:41;;;;;;;1.25;0.65;;;15.90;96.00;;;;;;6281181;22;20003;-91
2023/05/11 16:09:08;;;;;;;0.47;0.47;;;15.90;96.00;;;;;;6278185;22;20433;-91
2023/05/11 16:11:35;;;;;;;1.10;0.68;;;15.90;95.90;;;;;;6287610;22;19996;-90
2023/05/11 16:14:01;;;;;;;0.85;0.80;;;15.90;95.90;;;;;;6265461;22;20099;-91
2023/05/11 16:16:27;;;;;;;0.63;0.57;;;15.90;96.00;;;;;;6296862;22;19999;-91
2023/05/11 16:18:52;;;;;;;0.82;0.80;;;15.90;96.00;;;;;;6298185;22;20000;-92
2023/05/11 16:21:18;;;;;;;1.60;0.60;;;15.90;96.00;;;;;;6300866;22;20006;-92
2023/05/11 16:23:44;;;;;;;0.50;0.50;;;15.90;95.90;;;;;;6299037;22;20110;-91
2023/05/11 16:26:09;;;;;;;0.50;0.50;;;15.80;95.80;;;;;;6284684;22;20008;-89
2023/05/11 16:28:35;;;;;;;0.40;0.40;;;15.80;96.00;;;;;;6277935;22;20010;-89
2023/05/11 16:31:01;;;;;;;1.20;0.65;;;15.80;96.00;;;;;;6278082;22;20077;-92
2023/05/11 16:33:27;;;;;;;0.50;0.47;;;15.80;96.00;;;;;;6302536;22;20049;-92
2023/05/11 16:35:53;;;;;;;0.60;0.50;;;15.80;96.00;;;;;;6250923;22;20004;-93
2023/05/11 16:38:20;;;;;;;0.60;0.45;;;15.80;96.00;;;;;;6302416;22;20031;-92
2023/05/11 16:40:46;;;;;;;0.70;0.60;;;15.80;96.00;;;;;;6278086;22;19996;-92
2023/05/11 16:43:12;;;;;;;0.80;0.60;;;15.80;96.20;;;;;;6278427;22;20077;-91
2023/05/11 16:45:38;;;;;;;0.90;0.32;;;15.80;96.10;;;;;;6278242;22;19996;-93
2023/05/11 16:48:04;;;;;;;0.65;0.50;;;15.80;96.00;;;;;;6277493;22;20362;-93
2023/05/11 16:50:30;;;;;;;0.88;0.45;;;15.80;96.00;;;;;;6248654;22;20018;-91
2023/05/11 16:52:56;;;;;;;0.68;0.40;;;15.80;96.10;;;;;;6249001;22;20361;-88
2023/05/11 16:55:28;;;;;;;2.80;0.60;;;15.90;96.10;;;;;;6302212;22;20030;-87
2023/05/11 16:57:54;;;;;;;0.50;0.40;;;15.80;96.30;;;;;;6250743;22;20012;-90
2023/05/11 17:00:20;;;;;;;0.45;0.45;;;15.80;96.10;;;;;;6277050;22;20069;-86
2023/05/11 17:02:46;;;;;;;1.08;0.60;;;15.90;96.20;;;;;;6302239;22;20053;-85
2023/05/11 17:05:12;;;;;;;0.60;0.50;;;15.90;96.20;;;;;;6302380;22;20045;-87
2023/05/11 17:07:38;;;;;;;0.95;0.60;;;15.90;96.00;;;;;;6278093;22;20000;-85
2023/05/11 17:10:04;;;;;;;0.90;0.75;;;15.90;96.10;;;;;;6277925;22;20035;-90
2023/05/11 17:12:30;;;;;;;1.15;0.80;;;15.90;96.10;;;;;;6277493;22;20007;-90
2023/05/11 17:14:57;;;;;;;0.95;0.70;;;15.90;96.20;;;;;;6278300;22;20015;-91
2023/05/11 17:17:23;;;;;;;0.75;0.60;;;15.90;96.10;;;;;;6249220;22;20346;-91
2023/05/11 17:19:49;;;;;;;0.80;0.70;;;15.90;96.20;;;;;;6276881;22;20441;-91
2023/05/11 17:22:14;;;;;;;0.82;0.80;;;15.90;96.10;;;;;;6277547;22;19999;-92
2023/05/11 17:24:40;;;;;;;2.78;0.73;;;15.90;96.10;;;;;;6277152;22;20007;-91
2023/05/11 17:27:06;;;;;;;2.35;0.95;;;15.90;96.20;;;;;;6278783;22;20006;-91
2023/05/11 17:29:32;;;;;;;0.95;0.73;;;15.90;96.20;;;;;;6250981;22;20230;-91
2023/05/11 17:31:58;;;;;;;0.93;0.88;;;15.90;96.20;;;;;;6250414;22;20023;-91
2023/05/11 17:34:24;;;;;;;0.85;0.77;;;15.90;96.20;;;;;;6302292;22;20053;-93
2023/05/11 17:36:49;;;;;;;0.95;0.80;;;15.90;96.20;;;;;;6278934;22;20023;-94
2023/05/11 17:39:15;;;;;;;0.95;0.80;;;15.90;96.30;;;;;;6281167;22;20003;-92
2023/05/11 17:41:41;;;;;;;1.17;0.88;;;15.90;96.30;;;;;;6280166;22;20000;-92
2023/05/11 17:44:07;;;;;;;9.38;1.67;;;15.90;96.20;;;;;;6250250;22;20003;-92
2023/05/11 17:46:33;;;;;;;0.80;0.63;;;15.90;96.30;;;;;;6251731;22;20311;-85
2023/05/11 17:48:59;;;;;;;0.77;0.73;;;15.90;96.30;;;;;;6301835;22;20081;-92
2023/05/11 17:51:25;;;;;;;1.45;0.65;;;15.90;96.40;;;;;;6276729;22;20007;-85
2023/05/11 17:53:51;;;;;;;0.68;0.60;;;15.90;96.40;;;;;;6275858;22;20004;-84
2023/05/11 17:56:17;;;;;;;0.50;0.40;;;15.90;96.40;;;;;;6274519;22;20337;-83
2023/05/11 17:58:42;;;;;;;1.20;0.63;;;15.90;96.30;;;;;;6247467;22;20506;-83
2023/05/11 18:01:12;;;;;;;2.22;0.80;;;15.90;96.40;;;;;;6276594;22;20058;-84